createdAt,value
2023-03-22T00:00:56.387Z,18.82
2023-03-22T00:03:27.704Z,20.52
2023-03-22T00:05:58.976Z,19.70
2023-03-22T00:08:29.686Z,19.85
2023-03-22T00:11:00.248Z,18.48
2023-03-22T00:13:35.626Z,18.20
2023-03-22T00:16:07.334Z,19.40
2023-03-22T00:18:39.864Z,18.42
2023-03-22T00:21:13.475Z,18.10
2023-03-22T00:23:45.951Z,17.98
2023-03-22T00:26:16.571Z,18.32
2023-03-22T00:28:47.065Z,18.45
2023-03-22T00:31:17.719Z,19.15
2023-03-22T00:33:48.761Z,17.90
2023-03-22T00:36:20.963Z,19.05
2023-03-22T00:38:52.585Z,19.05
2023-03-22T00:41:25.525Z,19.25
2023-03-22T00:43:56.103Z,18.48
2023-03-22T00:46:27.963Z,20.30
2023-03-22T00:48:58.803Z,19.90
2023-03-22T00:51:31.012Z,19.65
2023-03-22T00:54:01.668Z,19.98
2023-03-22T00:56:37.938Z,19.55
2023-03-22T00:59:06.719Z,19.00
2023-03-22T01:01:37.430Z,19.00
2023-03-22T01:04:08.284Z,19.20
2023-03-22T01:06:38.996Z,20.17
2023-03-22T01:09:12.710Z,19.60
2023-03-22T01:11:44.316Z,19.37
2023-03-22T01:14:19.357Z,19.75
2023-03-22T01:16:50.136Z,19.00
2023-03-22T01:19:20.872Z,19.37
2023-03-22T01:21:52.551Z,19.15
2023-03-22T01:24:23.265Z,18.42
2023-03-22T01:26:53.835Z,19.50
2023-03-22T01:29:26.105Z,19.42
2023-03-22T01:31:56.620Z,19.73
2023-03-22T01:34:27.166Z,19.40
2023-03-22T01:36:59.270Z,19.57
2023-03-22T01:39:32.036Z,19.35
2023-03-22T01:42:05.573Z,19.57
2023-03-22T01:44:37.541Z,18.62
2023-03-22T01:47:11.478Z,18.37
2023-03-22T01:49:43.457Z,18.37
2023-03-22T01:52:15.781Z,21.12
2023-03-22T01:54:49.486Z,18.62
2023-03-22T01:57:20.136Z,19.62
2023-03-22T01:59:51.313Z,20.20
2023-03-22T02:02:22.201Z,19.27
2023-03-22T02:04:54.550Z,18.90
2023-03-22T02:07:28.308Z,19.65
2023-03-22T02:09:59.877Z,18.15
2023-03-22T02:12:53.162Z,19.35
2023-03-22T02:15:32.329Z,18.67
2023-03-22T02:18:10.629Z,18.52
2023-03-22T02:21:00.182Z,18.62
2023-03-22T02:23:43.224Z,18.67
2023-03-22T02:26:28.777Z,19.07
2023-03-22T02:29:22.587Z,19.15
2023-03-22T02:32:25.179Z,18.92
2023-03-22T02:35:16.704Z,18.62
2023-03-22T02:38:13.318Z,19.37
2023-03-22T02:41:06.366Z,19.00
2023-03-22T02:43:48.413Z,19.05
2023-03-22T02:46:25.163Z,19.05
2023-03-22T02:48:58.829Z,18.82
2023-03-22T02:51:55.283Z,19.30
2023-03-22T02:54:28.864Z,17.67
2023-03-22T02:57:02.472Z,18.65
2023-03-22T02:59:36.867Z,18.00
2023-03-22T03:02:10.726Z,17.77
2023-03-22T03:04:45.502Z,18.15
2023-03-22T03:07:20.290Z,18.05
2023-03-22T03:09:53.237Z,17.52
2023-03-22T03:12:26.641Z,18.02
2023-03-22T03:14:57.829Z,17.90
2023-03-22T03:17:37.361Z,17.40
2023-03-22T03:20:12.234Z,17.82
2023-03-22T03:22:57.920Z,18.23
2023-03-22T03:25:48.334Z,17.62
2023-03-22T03:28:32.481Z,17.42
2023-03-22T03:31:31.902Z,17.27
2023-03-22T03:34:05.562Z,16.60
2023-03-22T03:36:38.386Z,17.67
2023-03-22T03:39:12.405Z,17.15
2023-03-22T03:41:47.322Z,16.75
2023-03-22T03:44:19.312Z,16.70
2023-03-22T03:46:51.724Z,17.10
2023-03-22T03:49:24.104Z,16.80
2023-03-22T03:51:56.300Z,17.55
2023-03-22T03:54:26.945Z,17.67
2023-03-22T03:56:57.834Z,16.25
2023-03-22T03:59:29.858Z,17.57
2023-03-22T04:02:00.483Z,17.80
2023-03-22T04:04:31.247Z,16.65
2023-03-22T04:07:04.652Z,16.57
2023-03-22T04:09:38.004Z,16.67
2023-03-22T04:12:09.755Z,17.17
2023-03-22T04:14:44.275Z,15.80
2023-03-22T04:17:18.296Z,16.07
2023-03-22T04:19:49.594Z,15.90
2023-03-22T04:22:20.072Z,16.77
2023-03-22T04:24:51.128Z,15.88
2023-03-22T04:27:22.799Z,15.40
2023-03-22T04:29:54.596Z,16.30
2023-03-22T04:32:25.310Z,15.60
2023-03-22T04:34:56.222Z,15.80
2023-03-22T04:37:27.170Z,16.32
2023-03-22T04:39:58.948Z,15.78
2023-03-22T04:42:30.557Z,14.63
2023-03-22T04:45:03.581Z,15.18
2023-03-22T04:47:34.212Z,14.80
2023-03-22T04:50:07.490Z,15.38
2023-03-22T04:52:38.198Z,14.75
2023-03-22T04:55:09.764Z,14.83
2023-03-22T04:57:40.465Z,14.75
2023-03-22T05:00:11.986Z,15.25
2023-03-22T05:02:42.638Z,15.10
2023-03-22T05:05:13.355Z,15.60
2023-03-22T05:07:47.061Z,14.35
2023-03-22T05:10:17.657Z,15.30
2023-03-22T05:12:49.907Z,14.83
2023-03-22T05:15:20.365Z,15.03
2023-03-22T05:17:51.002Z,14.93
2023-03-22T05:20:22.908Z,14.68
2023-03-22T05:22:56.166Z,15.30
2023-03-22T05:25:26.783Z,15.58
2023-03-22T05:27:58.984Z,15.60
2023-03-22T05:30:30.753Z,16.17
2023-03-22T05:33:03.121Z,15.58
2023-03-22T05:35:35.575Z,15.83
2023-03-22T05:38:06.788Z,14.87
2023-03-22T05:40:39.468Z,15.88
2023-03-22T05:43:10.596Z,14.20
2023-03-22T05:45:42.456Z,14.98
2023-03-22T05:48:13.403Z,14.33
2023-03-22T05:50:44.261Z,14.50
2023-03-22T05:53:14.852Z,14.35
2023-03-22T05:55:46.202Z,14.25
2023-03-22T05:58:18.445Z,13.93
2023-03-22T06:00:52.179Z,13.85
2023-03-22T06:03:24.568Z,14.75
2023-03-22T06:05:55.703Z,14.93
2023-03-22T06:08:26.876Z,13.60
2023-03-22T06:10:58.168Z,13.50
2023-03-22T06:13:30.713Z,14.47
2023-03-22T06:16:03.025Z,13.85
2023-03-22T06:18:34.227Z,13.65
2023-03-22T06:21:08.354Z,13.62
2023-03-22T06:23:44.386Z,13.90
2023-03-22T06:26:14.871Z,13.95
2023-03-22T06:28:47.664Z,13.15
2023-03-22T06:31:18.155Z,13.30
2023-03-22T06:33:48.770Z,13.58
2023-03-22T06:36:19.455Z,14.45
2023-03-22T06:38:50.601Z,13.83
2023-03-22T06:41:22.018Z,12.95
2023-03-22T06:43:53.069Z,13.38
2023-03-22T06:46:23.767Z,13.85
2023-03-22T06:48:54.326Z,13.90
2023-03-22T06:51:26.196Z,13.48
2023-03-22T06:53:56.602Z,13.72
2023-03-22T06:56:29.266Z,13.22
2023-03-22T06:59:00.259Z,13.50
2023-03-22T07:01:31.025Z,14.15
2023-03-22T07:04:01.689Z,13.25
2023-03-22T07:06:32.756Z,15.13
2023-03-22T07:09:03.482Z,14.53
2023-03-22T07:11:35.630Z,13.13
2023-03-22T07:14:07.718Z,13.18
2023-03-22T07:16:40.122Z,13.03
2023-03-22T07:19:12.026Z,13.15
2023-03-22T07:21:44.810Z,12.47
2023-03-22T07:24:15.824Z,13.30
2023-03-22T07:26:46.565Z,12.95
2023-03-22T07:29:17.187Z,14.70
2023-03-22T07:31:47.768Z,13.20
2023-03-22T07:34:18.144Z,13.22
2023-03-22T07:36:52.162Z,13.50
2023-03-22T07:39:24.218Z,12.58
2023-03-22T07:41:54.715Z,12.43
2023-03-22T07:44:25.941Z,12.47
2023-03-22T07:46:59.163Z,13.00
2023-03-22T07:49:30.275Z,12.93
2023-03-22T07:52:01.126Z,12.55
2023-03-22T07:54:34.242Z,13.05
2023-03-22T07:57:03.886Z,11.95
2023-03-22T07:59:34.413Z,12.20
2023-03-22T08:02:05.074Z,11.73
2023-03-22T08:04:35.619Z,12.93
2023-03-22T08:07:07.823Z,11.90
2023-03-22T08:09:39.442Z,12.13
2023-03-22T08:12:09.916Z,11.88
2023-03-22T08:14:40.379Z,11.33
2023-03-22T08:17:11.309Z,11.35
2023-03-22T08:19:41.818Z,12.37
2023-03-22T08:22:12.325Z,11.48
2023-03-22T08:24:42.796Z,12.13
2023-03-22T08:27:14.202Z,11.20
2023-03-22T08:29:44.621Z,11.12
2023-03-22T08:32:16.326Z,11.88
2023-03-22T08:34:49.340Z,11.83
2023-03-22T08:37:20.409Z,11.83
2023-03-22T08:39:51.996Z,11.40
2023-03-22T08:42:24.093Z,11.43
2023-03-22T08:44:54.653Z,12.00
2023-03-22T08:47:27.546Z,11.57
2023-03-22T08:49:58.146Z,11.18
2023-03-22T08:52:30.194Z,10.68
2023-03-22T08:55:01.137Z,11.70
2023-03-22T08:57:31.882Z,11.22
2023-03-22T09:00:06.491Z,11.75
2023-03-22T09:02:37.368Z,10.68
2023-03-22T09:05:08.091Z,11.25
2023-03-22T09:07:39.199Z,11.40
2023-03-22T09:10:10.686Z,12.43
2023-03-22T09:12:41.162Z,10.25
2023-03-22T09:15:12.170Z,10.60
2023-03-22T09:17:42.621Z,10.25
2023-03-22T09:20:17.959Z,10.80
2023-03-22T09:22:48.736Z,11.10
2023-03-22T09:25:19.537Z,9.73
2023-03-22T09:27:51.527Z,9.58
2023-03-22T09:30:21.968Z,9.95
2023-03-22T09:32:52.502Z,10.25
2023-03-22T09:35:23.548Z,10.65
2023-03-22T09:37:54.676Z,10.00
2023-03-22T09:40:28.694Z,10.15
2023-03-22T09:43:02.086Z,10.43
2023-03-22T09:45:37.003Z,10.30
2023-03-22T09:48:13.739Z,9.90
2023-03-22T09:50:49.816Z,10.38
2023-03-22T09:53:23.706Z,10.40
2023-03-22T09:56:12.378Z,10.50
2023-03-22T09:58:51.484Z,9.95
2023-03-22T10:01:51.811Z,10.08
2023-03-22T10:04:36.794Z,9.68
2023-03-22T10:07:13.771Z,9.35
2023-03-22T10:10:11.287Z,9.75
2023-03-22T10:12:47.576Z,10.18
2023-03-22T10:15:21.058Z,9.28
2023-03-22T10:17:54.413Z,9.40
2023-03-22T10:20:28.494Z,9.33
2023-03-22T10:23:04.347Z,8.45
2023-03-22T10:25:39.014Z,9.20
2023-03-22T10:28:18.840Z,9.25
2023-03-22T10:30:54.759Z,8.20
2023-03-22T10:33:40.435Z,8.20
2023-03-22T10:36:16.589Z,7.17
2023-03-22T10:38:54.268Z,7.90
2023-03-22T10:41:26.525Z,7.83
2023-03-22T10:44:02.980Z,7.70
2023-03-22T10:46:37.579Z,7.67
2023-03-22T10:49:11.004Z,7.50
2023-03-22T10:51:54.696Z,8.43
2023-03-22T10:54:27.127Z,8.23
2023-03-22T10:56:57.625Z,7.55
2023-03-22T10:59:51.962Z,7.85
2023-03-22T11:02:28.104Z,7.05
2023-03-22T11:05:01.341Z,6.75
2023-03-22T11:07:35.164Z,7.15
2023-03-22T11:10:11.813Z,6.10
2023-03-22T11:12:54.250Z,5.90
2023-03-22T11:15:33.888Z,5.83
2023-03-22T11:18:07.440Z,6.75
2023-03-22T11:20:43.773Z,6.08
2023-03-22T11:23:18.015Z,5.95
2023-03-22T11:25:51.539Z,6.40
2023-03-22T11:28:24.654Z,6.53
2023-03-22T11:31:11.467Z,5.62
2023-03-22T11:33:58.832Z,5.05
2023-03-22T11:36:30.268Z,4.53
2023-03-22T11:39:04.100Z,5.00
2023-03-22T11:41:40.815Z,5.28
2023-03-22T11:44:15.428Z,5.47
2023-03-22T11:47:03.342Z,5.30
2023-03-22T11:49:36.858Z,4.67
2023-03-22T11:52:11.820Z,4.58
2023-03-22T11:54:45.832Z,4.85
2023-03-22T11:57:19.508Z,4.83
2023-03-22T11:59:56.753Z,4.90
2023-03-22T12:02:34.216Z,4.72
2023-03-22T12:05:10.664Z,4.40
2023-03-22T12:07:43.766Z,4.75
2023-03-22T12:10:26.997Z,4.58
2023-03-22T12:13:07.896Z,4.67
2023-03-22T12:15:42.160Z,4.70
2023-03-22T12:18:23.197Z,4.35
2023-03-22T12:20:59.128Z,5.28
2023-03-22T12:23:34.581Z,4.80
2023-03-22T12:26:18.327Z,5.10
2023-03-22T12:29:01.825Z,5.20
2023-03-22T12:31:38.530Z,4.78
2023-03-22T12:37:09.212Z,4.67
2023-03-22T12:39:43.780Z,4.55
2023-03-22T12:42:21.983Z,4.85
2023-03-22T12:45:04.617Z,4.53
2023-03-22T12:47:31.172Z,4.92
2023-03-22T12:50:05.555Z,4.58
2023-03-22T12:52:45.606Z,4.60
2023-03-22T12:55:25.374Z,4.03
2023-03-22T12:57:59.899Z,4.15
2023-03-22T13:00:48.592Z,4.40
2023-03-22T13:03:23.654Z,4.20
2023-03-22T13:06:03.499Z,4.17
2023-03-22T13:09:12.000Z,4.28
2023-03-22T13:11:44.644Z,4.05
2023-03-22T13:14:54.134Z,4.20
2023-03-22T13:17:27.835Z,3.67
2023-03-22T13:20:14.782Z,4.20
2023-03-22T13:22:52.556Z,3.40
2023-03-22T13:25:37.893Z,4.20
2023-03-22T13:28:32.077Z,3.90
2023-03-22T13:31:02.590Z,3.00
2023-03-22T13:33:36.420Z,3.20
2023-03-22T13:36:25.953Z,3.27
2023-03-22T13:39:03.162Z,3.02
2023-03-22T13:41:35.560Z,3.20
2023-03-22T13:44:30.053Z,3.30
2023-03-22T13:47:06.037Z,2.83
2023-03-22T13:49:46.283Z,3.00
2023-03-22T13:52:27.641Z,2.90
2023-03-22T13:54:59.571Z,3.30
2023-03-22T13:57:48.832Z,3.42
2023-03-22T14:00:25.052Z,2.92
2023-03-22T14:02:57.062Z,3.10
2023-03-22T14:05:32.316Z,3.20
2023-03-22T14:08:04.484Z,3.10
2023-03-22T14:10:53.791Z,3.00
2023-03-22T14:13:31.184Z,2.98
2023-03-22T14:16:21.977Z,2.80
2023-03-22T14:18:52.773Z,3.10
2023-03-22T14:21:27.549Z,2.70
